Portada
METAR-TAF:

METAR-TAF

Aeropuertos :

Al-Hasa, Arabia Saudita

latitud: 25-18N, longitud: 049-29E, altitud: 179 m

Observación

El informe se hizo hace 49 minutos, a las 22:00 UTC
Viento calma
Temperatura 9°C
Humedad 81%
Presión 1020 hPa
Visibilidad 10 km o más
sin nubes por debajo de 1500 m y sin presencia de cumulonimbus.

METAR: OEAH 242200Z 00000KT CAVOK 09/06 Q1020 NOSIG

Hora: 01:49 (22:49 UTC)

Pronóstico

El informe se hizo hace 11 horas y 49 minutos, a las 11:00 UTC
Pronóstico válido del 24 a las 12 UTC al 25 a las 18 UTC
Viento 10 kt del este
Visibilidad: 8000 m
Escasas nubes a una altura de 4000 ft
Evolucionando progresivamente
del 24 a las 18 UTC al 24 a las 20 UTC
Viento 3 kt con dirección variable

TAF: OEAH 241100Z 2412/2518 08010KT 8000 FEW040 BECMG 2418/2420 VRB03KT

Observaciones y pronósticos meteorológicos de más de 4000 aeropuertos (mensajes METAR y TAF).

Los puntos amarillos y rojos representan las estaciones disponibles.

Ponga el ratón en el punto deseado para ver el nombre de la estación.

Haga clic para ver las observaciones y los pronósticos meteorológicos.

Para cambiar el mapa : haga clic en los botones verdes con una cruz de color negro para hacer un zoom, en el botón verde con un guión para alejar o en las flechas verdes para mapas adyacentes.


METAR-TAF: